createdAt,value
2018-05-31T00:00:02.572Z,11.6
2018-05-31T00:00:52.330Z,11.6
2018-05-31T00:01:42.417Z,11.5
2018-05-31T00:02:32.487Z,11.5
2018-05-31T00:03:22.827Z,11.4
2018-05-31T00:04:12.583Z,11.4
2018-05-31T00:05:02.978Z,11.4
2018-05-31T00:05:53.070Z,11.4
2018-05-31T00:06:43.528Z,11.4
2018-05-31T00:07:33.168Z,11.3
2018-05-31T00:08:23.255Z,11.3
2018-05-31T00:09:13.016Z,11.3
2018-05-31T00:10:04.478Z,11.3
2018-05-31T00:10:52.826Z,11.2
2018-05-31T00:11:43.178Z,11.2
2018-05-31T00:12:33.538Z,11.2
2018-05-31T00:13:25.281Z,11.1
2018-05-31T00:14:13.380Z,11.1
2018-05-31T00:15:03.713Z,11.1
2018-05-31T00:15:53.197Z,11.1
2018-05-31T00:16:44.615Z,11.1
2018-05-31T00:17:33.622Z,11
2018-05-31T00:18:23.678Z,11
2018-05-31T00:19:14.030Z,10.9
2018-05-31T00:20:03.865Z,10.9
2018-05-31T00:20:54.179Z,10.9
2018-05-31T00:21:44.252Z,10.8
2018-05-31T00:22:34.019Z,10.8
2018-05-31T00:23:24.049Z,10.8
2018-05-31T00:24:14.133Z,10.8
2018-05-31T00:25:04.759Z,10.8
2018-05-31T00:25:54.569Z,10.7
2018-05-31T00:26:44.626Z,10.7
2018-05-31T00:27:34.664Z,10.6
2018-05-31T00:28:24.745Z,10.6
2018-05-31T00:29:14.261Z,10.6
2018-05-31T00:30:04.914Z,10.6
2018-05-31T00:30:54.644Z,10.6
2018-05-31T00:31:44.996Z,10.6
2018-05-31T00:32:35.065Z,10.6
2018-05-31T00:33:25.108Z,10.5
2018-05-31T00:34:14.896Z,10.5
2018-05-31T00:35:04.659Z,10.4
2018-05-31T00:35:55.278Z,10.4
2018-05-31T00:36:45.086Z,10.4
2018-05-31T00:37:35.418Z,10.4
2018-05-31T00:38:25.508Z,10.3
2018-05-31T00:39:16.358Z,10.3
2018-05-31T00:40:05.329Z,10.3
2018-05-31T00:40:55.703Z,10.3
2018-05-31T00:41:45.461Z,10.2
2018-05-31T00:42:36.830Z,10.2
2018-05-31T00:43:25.361Z,10.2
2018-05-31T00:44:15.931Z,10.1
2018-05-31T00:45:06.023Z,10.2
2018-05-31T00:45:58.118Z,10.2
2018-05-31T00:46:46.128Z,10.1
2018-05-31T00:47:35.328Z,10.1
2018-05-31T00:48:25.973Z,10.1
2018-05-31T00:49:19.473Z,10.1
2018-05-31T00:50:06.104Z,10
2018-05-31T00:50:56.447Z,10
2018-05-31T00:51:45.926Z,10
2018-05-31T00:52:36.571Z,9.9
2018-05-31T00:53:26.341Z,9.9
2018-05-31T00:54:16.809Z,9.9
2018-05-31T00:55:06.810Z,9.9
2018-05-31T00:55:55.963Z,9.9
2018-05-31T00:56:46.604Z,9.9
2018-05-31T00:57:36.964Z,9.9
2018-05-31T00:58:26.723Z,9.9
2018-05-31T00:59:16.775Z,9.9
2018-05-31T01:00:07.149Z,9.9
2018-05-31T01:00:57.227Z,9.9
2018-05-31T01:01:47.281Z,9.9
2018-05-31T01:02:37.050Z,9.9
2018-05-31T01:03:27.418Z,9.9
2018-05-31T01:04:17.155Z,9.8
2018-05-31T01:05:07.556Z,9.8
2018-05-31T01:05:57.032Z,9.8
2018-05-31T01:06:47.655Z,9.8
2018-05-31T01:07:37.728Z,9.8
2018-05-31T01:08:28.136Z,9.8
2018-05-31T01:09:17.851Z,9.8
2018-05-31T01:10:07.932Z,9.7
2018-05-31T01:10:57.691Z,9.7
2018-05-31T01:11:49.158Z,9.7
2018-05-31T01:12:37.814Z,9.7
2018-05-31T01:13:27.589Z,9.7
2018-05-31T01:14:18.223Z,9.6
2018-05-31T01:15:09.897Z,9.7
2018-05-31T01:15:58.081Z,9.6
2018-05-31T01:16:48.437Z,9.6
2018-05-31T01:17:38.486Z,9.6
2018-05-31T01:18:31.060Z,9.6
2018-05-31T01:19:18.114Z,9.6
2018-05-31T01:20:07.793Z,9.6
2018-05-31T01:20:58.215Z,9.6
2018-05-31T01:21:50.003Z,9.6
2018-05-31T01:22:38.276Z,9.6
2018-05-31T01:23:28.940Z,9.6
2018-05-31T01:24:18.968Z,9.5
2018-05-31T01:25:09.050Z,9.5
2018-05-31T01:25:59.357Z,9.5
2018-05-31T01:26:48.897Z,9.5
2018-05-31T01:27:38.958Z,9.5
2018-05-31T01:28:28.732Z,9.5
2018-05-31T01:29:19.391Z,9.4
2018-05-31T01:30:09.461Z,9.4
2018-05-31T01:30:59.483Z,9.4
2018-05-31T01:31:49.550Z,9.4
2018-05-31T01:32:39.631Z,9.4
2018-05-31T01:33:29.405Z,9.4
2018-05-31T01:34:19.181Z,9.4
2018-05-31T01:35:09.860Z,9.4
2018-05-31T01:35:59.875Z,9.4
2018-05-31T01:36:49.645Z,9.3
2018-05-31T01:37:40.457Z,9.3
2018-05-31T01:38:29.786Z,9.4
2018-05-31T01:39:20.165Z,9.3
2018-05-31T01:40:10.266Z,9.3
2018-05-31T01:41:00.794Z,9.3
2018-05-31T01:41:50.358Z,9.3
2018-05-31T01:42:40.378Z,9.3
2018-05-31T01:43:30.172Z,9.3
2018-05-31T01:44:21.198Z,9.2
2018-05-31T01:45:10.561Z,9.2
2018-05-31T01:46:00.631Z,9.2
2018-05-31T01:46:50.127Z,9.2
2018-05-31T01:47:43.418Z,9.1
2018-05-31T01:48:30.837Z,9.1
2018-05-31T01:49:20.908Z,9.1
2018-05-31T01:50:10.688Z,9.1
2018-05-31T01:51:01.258Z,9.1
2018-05-31T01:51:50.853Z,9.1
2018-05-31T01:52:40.850Z,9
2018-05-31T01:53:30.640Z,9
2018-05-31T01:54:20.708Z,8.9
2018-05-31T01:55:11.346Z,9
2018-05-31T01:56:01.121Z,8.9
2018-05-31T01:56:51.500Z,8.9
2018-05-31T01:57:41.539Z,8.9
2018-05-31T01:58:31.605Z,8.9
2018-05-31T01:59:21.648Z,8.9
2018-05-31T02:00:11.728Z,8.9
2018-05-31T02:01:01.814Z,8.9
2018-05-31T02:01:51.860Z,8.8
2018-05-31T02:02:41.925Z,8.8
2018-05-31T02:03:31.695Z,8.8
2018-05-31T02:04:22.039Z,8.8
2018-05-31T02:05:12.113Z,8.7
2018-05-31T02:06:01.873Z,8.7
2018-05-31T02:06:52.224Z,8.7
2018-05-31T02:07:42.007Z,8.7
2018-05-31T02:08:32.344Z,8.6
2018-05-31T02:09:22.399Z,8.6
2018-05-31T02:10:13.129Z,8.6
2018-05-31T02:11:02.551Z,8.6
2018-05-31T02:11:52.607Z,8.6
2018-05-31T02:12:42.403Z,8.5
2018-05-31T02:13:33.531Z,8.5
2018-05-31T02:14:22.784Z,8.5
2018-05-31T02:15:12.929Z,8.4
2018-05-31T02:16:02.626Z,8.4
2018-05-31T02:16:54.895Z,8.4
2018-05-31T02:17:43.060Z,8.4
2018-05-31T02:18:32.819Z,8.4
2018-05-31T02:19:22.610Z,8.4
2018-05-31T02:20:15.321Z,8.4
2018-05-31T02:21:03.316Z,8.4
2018-05-31T02:21:53.387Z,8.3
2018-05-31T02:22:43.440Z,8.3
2018-05-31T02:23:33.205Z,8.3
2018-05-31T02:24:23.060Z,8.3
2018-05-31T02:25:13.603Z,8.2
2018-05-31T02:26:03.707Z,8.2
2018-05-31T02:26:53.476Z,8.2
2018-05-31T02:27:43.540Z,8.2
2018-05-31T02:28:33.589Z,8.1
2018-05-31T02:29:23.958Z,8.1
2018-05-31T02:30:13.731Z,8.1
2018-05-31T02:31:04.161Z,8.1
2018-05-31T02:31:54.144Z,8.1
2018-05-31T02:32:44.190Z,8.1
2018-05-31T02:33:34.252Z,8
2018-05-31T02:34:24.025Z,8
2018-05-31T02:35:14.408Z,8
2018-05-31T02:36:04.499Z,7.9
2018-05-31T02:36:54.531Z,7.9
2018-05-31T02:37:44.599Z,7.9
2018-05-31T02:38:34.356Z,7.9
2018-05-31T02:39:25.526Z,7.9
2018-05-31T02:40:14.181Z,7.9
2018-05-31T02:41:04.844Z,7.8
2018-05-31T02:41:54.882Z,7.8
2018-05-31T02:42:46.847Z,7.8
2018-05-31T02:43:34.732Z,7.8
2018-05-31T02:44:25.081Z,7.8
2018-05-31T02:45:15.137Z,7.8
2018-05-31T02:46:07.098Z,7.8
2018-05-31T02:46:55.261Z,7.7
2018-05-31T02:47:45.352Z,7.7
2018-05-31T02:48:35.115Z,7.7
2018-05-31T02:49:24.610Z,7.6
2018-05-31T02:50:15.527Z,7.6
2018-05-31T02:51:05.597Z,7.6
2018-05-31T02:51:55.655Z,7.6
2018-05-31T02:52:45.749Z,7.6
2018-05-31T02:53:35.794Z,7.6
2018-05-31T02:54:25.599Z,7.6
2018-05-31T02:55:15.914Z,7.6
2018-05-31T02:56:05.980Z,7.5
2018-05-31T02:56:56.082Z,7.5
2018-05-31T02:57:46.087Z,7.5
2018-05-31T02:58:36.173Z,7.5
2018-05-31T02:59:26.234Z,7.5
2018-05-31T03:00:16.334Z,7.4
2018-05-31T03:01:06.056Z,7.4
2018-05-31T03:01:56.118Z,7.4
2018-05-31T03:02:46.176Z,7.4
2018-05-31T03:03:36.530Z,7.4
2018-05-31T03:04:26.401Z,7.4
2018-05-31T03:05:17.040Z,7.4
2018-05-31T03:06:06.737Z,7.4
2018-05-31T03:06:56.502Z,7.4
2018-05-31T03:07:46.739Z,7.4
2018-05-31T03:08:37.876Z,7.4
2018-05-31T03:09:26.727Z,7.4
2018-05-31T03:10:16.770Z,7.4
2018-05-31T03:11:07.118Z,7.4
2018-05-31T03:11:58.794Z,7.4
2018-05-31T03:12:47.239Z,7.4
2018-05-31T03:13:37.013Z,7.4
2018-05-31T03:14:26.804Z,7.4
2018-05-31T03:15:17.452Z,7.4
2018-05-31T03:16:07.524Z,7.4
2018-05-31T03:16:57.275Z,7.4
2018-05-31T03:17:47.649Z,7.4
2018-05-31T03:18:37.696Z,7.5
2018-05-31T03:19:27.790Z,7.5
2018-05-31T03:20:17.811Z,7.5
2018-05-31T03:21:07.599Z,7.6
2018-05-31T03:21:57.719Z,7.6
2018-05-31T03:22:48.009Z,7.6
2018-05-31T03:23:37.763Z,7.6
2018-05-31T03:24:28.158Z,7.6
2018-05-31T03:25:18.245Z,7.6
2018-05-31T03:26:08.255Z,7.6
2018-05-31T03:26:58.027Z,7.7
2018-05-31T03:27:48.098Z,7.7
2018-05-31T03:28:38.446Z,7.7
2018-05-31T03:29:28.501Z,7.8
2018-05-31T03:30:18.594Z,7.8
2018-05-31T03:31:09.585Z,7.8
2018-05-31T03:31:58.682Z,7.8
2018-05-31T03:32:48.478Z,7.9
2018-05-31T03:33:38.529Z,7.9
2018-05-31T03:34:30.804Z,7.9
2018-05-31T03:35:19.003Z,7.9
2018-05-31T03:36:08.723Z,7.9
2018-05-31T03:36:59.083Z,8
2018-05-31T03:37:50.292Z,8
2018-05-31T03:38:39.195Z,8.1
2018-05-31T03:39:28.976Z,8.1
2018-05-31T03:40:19.305Z,8.1
2018-05-31T03:41:09.379Z,8.2
2018-05-31T03:41:59.472Z,8.3
2018-05-31T03:42:49.541Z,8.3
2018-05-31T03:43:38.415Z,8.3
2018-05-31T03:44:29.660Z,8.3
2018-05-31T03:45:19.239Z,8.4
2018-05-31T03:46:09.787Z,8.4
2018-05-31T03:46:59.829Z,8.4
2018-05-31T03:47:49.912Z,8.5
2018-05-31T03:48:39.980Z,8.5
2018-05-31T03:49:29.449Z,8.6
2018-05-31T03:50:19.806Z,8.6
2018-05-31T03:51:10.156Z,8.6
2018-05-31T03:51:59.970Z,8.7
2018-05-31T03:52:50.281Z,8.8
2018-05-31T03:53:40.054Z,8.8
2018-05-31T03:54:30.111Z,8.8
2018-05-31T03:55:20.204Z,8.9
2018-05-31T03:56:10.267Z,8.9
2018-05-31T03:57:01.842Z,9
2018-05-31T03:57:50.378Z,9.1
2018-05-31T03:58:40.717Z,9.1
2018-05-31T03:59:30.517Z,9.1
2018-05-31T04:00:22.991Z,9.2
2018-05-31T04:01:10.942Z,9.3
2018-05-31T04:02:01.007Z,9.3
2018-05-31T04:02:51.042Z,9.4
2018-05-31T04:03:41.403Z,9.4
2018-05-31T04:04:31.249Z,9.4
2018-05-31T04:05:20.941Z,9.5
2018-05-31T04:06:11.310Z,9.6
2018-05-31T04:07:01.366Z,9.6
2018-05-31T04:07:51.442Z,9.7
2018-05-31T04:08:41.489Z,9.8
2018-05-31T04:09:31.558Z,9.8
2018-05-31T04:10:21.331Z,9.9
2018-05-31T04:11:11.684Z,10
2018-05-31T04:12:01.446Z,10.1
2018-05-31T04:12:51.806Z,10.1
2018-05-31T04:13:41.592Z,10.3
2018-05-31T04:14:31.340Z,10.3
2018-05-31T04:15:22.016Z,10.4
2018-05-31T04:16:11.779Z,10.6
2018-05-31T04:17:01.545Z,10.6
2018-05-31T04:17:51.627Z,10.8
2018-05-31T04:18:42.244Z,10.9
2018-05-31T04:19:32.917Z,11
2018-05-31T04:20:22.359Z,11.1
2018-05-31T04:21:12.153Z,11.2
2018-05-31T04:22:02.228Z,11.4
2018-05-31T04:22:53.594Z,11.5
2018-05-31T04:23:42.638Z,11.6
2018-05-31T04:24:32.690Z,11.7
2018-05-31T04:25:22.470Z,11.9
2018-05-31T04:26:14.341Z,11.9
2018-05-31T04:27:02.592Z,12.1
2018-05-31T04:27:52.677Z,12.2
2018-05-31T04:28:43.019Z,12.3
2018-05-31T04:29:33.285Z,12.4
2018-05-31T04:30:23.136Z,12.6
2018-05-31T04:31:12.937Z,12.7
2018-05-31T04:32:02.995Z,12.9
2018-05-31T04:32:53.076Z,13.2
2018-05-31T04:33:43.772Z,13.4
2018-05-31T04:34:33.474Z,13.8
2018-05-31T04:35:23.526Z,14.1
2018-05-31T04:36:13.564Z,14.4
2018-05-31T04:37:03.372Z,14.8
2018-05-31T04:37:53.699Z,15.1
2018-05-31T04:38:43.796Z,15.4
2018-05-31T04:39:33.546Z,15.8
2018-05-31T04:40:23.318Z,16
2018-05-31T04:41:13.972Z,16.3
2018-05-31T04:42:04.062Z,16.6
2018-05-31T04:42:54.083Z,16.8
2018-05-31T04:43:44.141Z,17.1
2018-05-31T04:44:33.937Z,17.4
2018-05-31T04:45:25.338Z,17.6
2018-05-31T04:46:14.356Z,17.9
2018-05-31T04:47:04.415Z,18.3
2018-05-31T04:47:54.492Z,18.5
2018-05-31T04:48:45.903Z,18.8
2018-05-31T04:49:34.605Z,19.1
2018-05-31T04:50:24.682Z,19.4
2018-05-31T04:51:14.432Z,19.6
2018-05-31T04:52:05.790Z,19.9
2018-05-31T04:52:54.891Z,20.2
2018-05-31T04:53:44.342Z,20.4
2018-05-31T04:54:34.702Z,20.7
2018-05-31T04:55:25.068Z,20.9
2018-05-31T04:56:15.119Z,21.3
2018-05-31T04:57:04.893Z,21.4
2018-05-31T04:57:55.284Z,21.8
2018-05-31T04:58:45.319Z,21.9
2018-05-31T04:59:35.407Z,22.3
2018-05-31T05:00:25.447Z,22.5
2018-05-31T05:01:15.191Z,22.8
2018-05-31T05:02:05.554Z,23.1
2018-05-31T05:02:55.792Z,23.3
2018-05-31T05:03:45.135Z,23.6
2018-05-31T05:04:35.264Z,23.9
2018-05-31T05:05:25.811Z,24.1
2018-05-31T05:06:15.859Z,24.4
2018-05-31T05:07:05.655Z,24.8
2018-05-31T05:07:56.313Z,25.1
2018-05-31T05:08:45.488Z,25.4
2018-05-31T05:09:35.832Z,25.7
2018-05-31T05:10:26.192Z,26
2018-05-31T05:11:17.453Z,26.3
2018-05-31T05:12:06.304Z,26.6
2018-05-31T05:12:56.089Z,26.9
2018-05-31T05:13:45.577Z,27.3
2018-05-31T05:14:38.148Z,27.6
2018-05-31T05:15:26.578Z,27.9
2018-05-31T05:16:16.638Z,28.2
2018-05-31T05:17:06.705Z,28.6
2018-05-31T05:17:57.445Z,28.9
2018-05-31T05:18:46.832Z,29.3
2018-05-31T05:19:36.310Z,29.6
2018-05-31T05:20:26.953Z,29.9
2018-05-31T05:21:17.010Z,30.3
2018-05-31T05:22:06.791Z,30.6
2018-05-31T05:22:56.843Z,30.9
2018-05-31T05:23:46.921Z,31.2
2018-05-31T05:24:36.716Z,31.6
2018-05-31T05:25:27.336Z,31.9
2018-05-31T05:26:17.404Z,32.3
2018-05-31T05:27:07.472Z,32.6
2018-05-31T05:27:57.542Z,33.1
2018-05-31T05:28:47.600Z,33.4
2018-05-31T05:29:37.689Z,33.8
2018-05-31T05:30:27.429Z,34.1
2018-05-31T05:31:17.493Z,34.5
2018-05-31T05:32:07.266Z,34.8
2018-05-31T05:32:57.924Z,35.1
2018-05-31T05:33:48.246Z,35.4
2018-05-31T05:34:37.758Z,35.9
2018-05-31T05:35:27.505Z,36.3
2018-05-31T05:36:18.167Z,36.6
2018-05-31T05:37:09.169Z,37
2018-05-31T05:37:58.284Z,37.4
2018-05-31T05:38:48.339Z,37.8
2018-05-31T05:39:38.400Z,38.2
2018-05-31T05:40:30.544Z,38.5
2018-05-31T05:41:18.254Z,38.9
2018-05-31T05:42:08.343Z,39.3
2018-05-31T05:42:58.675Z,39.7
2018-05-31T05:43:48.464Z,40
2018-05-31T05:44:38.810Z,40.4
2018-05-31T05:45:28.631Z,40.6
2018-05-31T05:46:18.335Z,41
2018-05-31T05:47:08.984Z,41.4
2018-05-31T05:47:58.460Z,41.8
2018-05-31T05:48:49.100Z,42.2
2018-05-31T05:49:39.168Z,42.6
2018-05-31T05:50:28.674Z,43.1
2018-05-31T05:51:19.031Z,43.4
2018-05-31T05:52:09.358Z,43.8
2018-05-31T05:52:59.782Z,44.3
2018-05-31T05:53:49.300Z,44.6
2018-05-31T05:54:39.539Z,44.9
2018-05-31T05:55:29.620Z,45.4
2018-05-31T05:56:21.125Z,45.8
2018-05-31T05:57:09.465Z,46.3
2018-05-31T05:57:59.814Z,46.7
2018-05-31T05:58:49.862Z,47.1
2018-05-31T05:59:42.345Z,47.4
2018-05-31T06:00:30.006Z,47.8
2018-05-31T06:01:20.047Z,48.1
2018-05-31T06:02:09.836Z,48.5
2018-05-31T06:03:01.267Z,48.9
2018-05-31T06:03:50.235Z,49.4
2018-05-31T06:04:40.330Z,49.8
2018-05-31T06:05:30.379Z,50.3
2018-05-31T06:06:20.465Z,50.6
2018-05-31T06:07:09.933Z,51.1
2018-05-31T06:08:00.554Z,51.5
2018-05-31T06:09:40.697Z,52.3
2018-05-31T06:10:30.796Z,52.8
2018-05-31T06:11:20.845Z,53.2
2018-05-31T06:12:10.597Z,53.8
2018-05-31T06:13:00.957Z,54.1
2018-05-31T06:13:50.725Z,54.4
2018-05-31T06:14:41.085Z,54.8
2018-05-31T06:15:32.643Z,55.2
2018-05-31T06:16:21.190Z,55.7
2018-05-31T06:17:10.985Z,56.1
2018-05-31T06:18:01.329Z,56.6
2018-05-31T06:18:53.682Z,57
2018-05-31T06:19:41.526Z,57.4
2018-05-31T06:20:31.541Z,57.8
2018-05-31T06:21:21.009Z,58.2
2018-05-31T06:22:13.001Z,58.5
2018-05-31T06:23:01.799Z,58.9
2018-05-31T06:23:51.795Z,59.4
2018-05-31T06:24:42.141Z,59.8
2018-05-31T06:25:31.913Z,60.1
2018-05-31T06:26:22.084Z,60.5
2018-05-31T06:27:11.749Z,61
2018-05-31T06:28:02.100Z,61.3
2018-05-31T06:28:52.138Z,61.8
2018-05-31T06:29:41.336Z,62.2
2018-05-31T06:30:32.296Z,62.8
2018-05-31T06:31:22.421Z,63.9
2018-05-31T06:32:12.439Z,62.5
2018-05-31T06:33:02.511Z,58.6
2018-05-31T06:33:52.549Z,52.3
2018-05-31T06:34:42.570Z,48.4
2018-05-31T06:35:32.658Z,46.6
2018-05-31T06:36:22.683Z,45.7
2018-05-31T06:37:13.074Z,45.3
2018-05-31T06:38:02.843Z,45.2
2018-05-31T06:38:52.886Z,45.6
2018-05-31T06:39:42.971Z,46.3
2018-05-31T06:40:33.016Z,47.1
2018-05-31T06:41:22.811Z,48.3
2018-05-31T06:42:12.869Z,49.6
2018-05-31T06:43:03.337Z,50.8
2018-05-31T06:44:43.048Z,53
2018-05-31T06:45:33.380Z,54.1
2018-05-31T06:46:23.481Z,55.1
2018-05-31T06:47:12.975Z,56.1
2018-05-31T06:48:03.591Z,57.1
2018-05-31T06:48:53.384Z,58
2018-05-31T06:49:43.182Z,59
2018-05-31T06:50:33.026Z,59.9
2018-05-31T06:51:23.837Z,60.7
2018-05-31T06:52:13.615Z,61.3
2018-05-31T06:53:03.971Z,62.7
2018-05-31T06:53:53.772Z,64
2018-05-31T06:54:43.840Z,61.4
2018-05-31T06:55:33.893Z,58.1
2018-05-31T06:56:24.259Z,54.8
2018-05-31T06:57:13.997Z,52.5
2018-05-31T06:58:03.880Z,51.5
2018-05-31T06:58:54.139Z,51.2
2018-05-31T06:59:44.473Z,51.6
2018-05-31T07:00:34.296Z,52.3
2018-05-31T07:01:24.048Z,53.2
2018-05-31T07:02:14.413Z,54.3
2018-05-31T07:03:04.736Z,55.6
2018-05-31T07:03:54.817Z,56.9
2018-05-31T07:04:44.583Z,58.1
2018-05-31T07:05:34.932Z,59.3
2018-05-31T07:06:24.717Z,60.4
2018-05-31T07:07:14.775Z,61.6
2018-05-31T07:08:05.111Z,63.5
2018-05-31T07:08:54.908Z,64.9
2018-05-31T07:09:44.971Z,63.2
2018-05-31T07:10:35.029Z,61.5
2018-05-31T07:11:24.899Z,59.4
2018-05-31T07:12:15.440Z,56.8
2018-05-31T07:13:05.513Z,55
2018-05-31T07:13:55.564Z,55.4
2018-05-31T07:14:45.629Z,56.8
2018-05-31T07:15:35.715Z,57.7
2018-05-31T07:16:25.499Z,58
2018-05-31T07:17:15.566Z,57.8
2018-05-31T07:18:05.878Z,57.1
2018-05-31T07:18:55.940Z,56.6
2018-05-31T07:19:46.010Z,56.4
2018-05-31T07:20:35.865Z,56.9
2018-05-31T07:21:25.377Z,57.6
2018-05-31T07:22:16.219Z,58.1
2018-05-31T07:23:06.262Z,58.5
2018-05-31T07:24:46.415Z,58.5
2018-05-31T07:25:36.192Z,58.5
2018-05-31T07:26:26.535Z,58.4
2018-05-31T07:27:16.530Z,58.6
2018-05-31T07:28:06.661Z,58.9
2018-05-31T07:28:56.737Z,59.1
2018-05-31T07:29:46.521Z,59.3
2018-05-31T07:30:36.620Z,59.4
2018-05-31T07:31:26.665Z,59.6
2018-05-31T07:32:16.702Z,59.8
2018-05-31T07:33:06.477Z,59.9
2018-05-31T07:33:57.096Z,60.1
2018-05-31T07:34:46.891Z,60.3
2018-05-31T07:35:37.274Z,60.4
2018-05-31T07:36:27.347Z,60.5
2018-05-31T07:37:17.099Z,60.7
2018-05-31T07:38:06.882Z,60.8
2018-05-31T07:38:57.511Z,60.9
2018-05-31T07:39:47.305Z,60.9
2018-05-31T07:40:37.652Z,61
2018-05-31T07:41:27.407Z,61.2
2018-05-31T07:42:17.763Z,61.5
2018-05-31T07:43:07.522Z,61.8
2018-05-31T07:43:57.591Z,61.8
2018-05-31T07:44:47.927Z,61.9
2018-05-31T07:45:38.022Z,62.1
2018-05-31T07:46:27.509Z,62.2
2018-05-31T07:47:17.848Z,62.3
2018-05-31T07:48:08.195Z,62.3
2018-05-31T07:48:58.278Z,62.1
2018-05-31T07:49:47.763Z,62.2
2018-05-31T07:50:38.119Z,62.4
2018-05-31T07:51:28.455Z,62.7
2018-05-31T07:52:18.548Z,62.8
2018-05-31T07:53:08.602Z,62.8
2018-05-31T07:53:58.677Z,62.9
2018-05-31T07:54:48.420Z,63.1
2018-05-31T07:55:38.497Z,63.3
2018-05-31T07:56:28.555Z,63.4
2018-05-31T07:57:18.906Z,63.5
2018-05-31T07:58:09.442Z,63.7
2018-05-31T07:58:58.468Z,63.9
2018-05-31T07:59:49.088Z,64.1
2018-05-31T08:00:38.676Z,64.3
2018-05-31T08:01:28.935Z,64.4
2018-05-31T08:02:19.286Z,64.6
2018-05-31T08:03:09.396Z,64.6
2018-05-31T08:03:59.417Z,64.7
2018-05-31T08:04:49.506Z,64.8
2018-05-31T08:05:39.186Z,65.1
2018-05-31T08:06:29.124Z,65.4
2018-05-31T08:07:19.688Z,65.3
2018-05-31T08:08:09.767Z,65.1
2018-05-31T08:08:59.271Z,65
2018-05-31T08:09:49.893Z,65.1
2018-05-31T08:10:39.710Z,65.3
2018-05-31T08:11:30.048Z,65.4
2018-05-31T08:12:19.555Z,65.6
2018-05-31T08:13:10.143Z,65.8
2018-05-31T08:14:00.210Z,66.1
2018-05-31T08:14:50.262Z,66.3
2018-05-31T08:15:40.328Z,66.4
2018-05-31T08:16:29.846Z,66.5
2018-05-31T08:17:20.195Z,66.7
2018-05-31T08:18:10.505Z,66.8
2018-05-31T08:19:00.319Z,67
2018-05-31T08:19:50.389Z,67.3
2018-05-31T08:20:40.539Z,67.4
2018-05-31T08:21:30.795Z,67.5
2018-05-31T08:22:20.560Z,67.3
2018-05-31T08:23:10.614Z,67.1
2018-05-31T08:24:00.681Z,67.1
2018-05-31T08:24:50.753Z,67.1
2018-05-31T08:25:40.539Z,67.4
2018-05-31T08:26:30.597Z,67.5
2018-05-31T08:27:21.210Z,67.7
2018-05-31T08:28:11.025Z,67.7
2018-05-31T08:29:01.366Z,67.8
2018-05-31T08:29:51.421Z,68.1
2018-05-31T08:30:41.486Z,68.3
2018-05-31T08:31:32.030Z,68.4
2018-05-31T08:32:21.618Z,68.7
2018-05-31T08:33:11.407Z,68.8
2018-05-31T08:34:01.752Z,68.8
2018-05-31T08:34:51.839Z,69
2018-05-31T08:35:41.881Z,69.1
2018-05-31T08:36:31.926Z,69.3
2018-05-31T08:37:21.976Z,69.3
2018-05-31T08:38:11.491Z,69.6
2018-05-31T08:39:02.129Z,69.7
2018-05-31T08:39:52.187Z,69.7
2018-05-31T08:40:42.251Z,69.6
2018-05-31T08:41:32.034Z,69.7
2018-05-31T08:42:22.376Z,69.9
2018-05-31T08:43:12.469Z,70
2018-05-31T08:44:02.791Z,69.8
2018-05-31T08:44:52.291Z,69.7
2018-05-31T08:45:42.670Z,69.8
2018-05-31T08:46:32.421Z,69.9
2018-05-31T08:47:22.188Z,70
2018-05-31T08:48:12.862Z,69.9
2018-05-31T08:49:01.845Z,69.6
2018-05-31T08:49:52.944Z,69.7
2018-05-31T08:50:43.017Z,70.1
2018-05-31T08:51:32.517Z,70.4
2018-05-31T08:52:22.851Z,70.6
2018-05-31T08:53:13.220Z,70.8
2018-05-31T08:54:03.337Z,70.9
2018-05-31T08:54:53.071Z,70.8
2018-05-31T08:55:42.640Z,70.5
2018-05-31T08:56:33.473Z,70.5
2018-05-31T08:57:23.446Z,70.5
2018-05-31T08:58:13.596Z,70.8
2018-05-31T08:59:03.673Z,71.2
2018-05-31T08:59:53.766Z,71.5
2018-05-31T09:00:43.793Z,71.6
2018-05-31T09:01:33.844Z,71.6
2018-05-31T09:02:23.925Z,71.9
2018-05-31T09:03:13.972Z,72.1
2018-05-31T09:04:03.778Z,72.2
2018-05-31T09:04:54.116Z,72.4
2018-05-31T09:05:44.207Z,72.5
2018-05-31T09:06:33.666Z,72.3
2018-05-31T09:07:24.308Z,72.3
2018-05-31T09:08:14.384Z,72.3
2018-05-31T09:09:04.455Z,72.3
2018-05-31T09:09:54.483Z,72.3
2018-05-31T09:10:44.545Z,72.3
2018-05-31T09:11:34.641Z,72.4
2018-05-31T09:12:24.668Z,72.4
2018-05-31T09:13:14.482Z,72.6
2018-05-31T09:14:04.829Z,72.9
2018-05-31T09:14:54.901Z,72.9
2018-05-31T09:15:44.667Z,73
2018-05-31T09:16:35.010Z,73.1
2018-05-31T09:17:25.107Z,73.2
2018-05-31T09:18:14.861Z,73.1
2018-05-31T09:19:05.210Z,73
2018-05-31T09:19:54.999Z,72.9
2018-05-31T09:20:45.339Z,73.1
2018-05-31T09:21:35.394Z,73.1
2018-05-31T09:22:25.441Z,73.1
2018-05-31T09:23:15.536Z,73.3
2018-05-31T09:24:05.579Z,73.4
2018-05-31T09:24:55.662Z,73.6
2018-05-31T09:25:45.697Z,73.7
2018-05-31T09:26:35.788Z,73.8
2018-05-31T09:27:25.283Z,73.7
2018-05-31T09:28:15.940Z,73.8
2018-05-31T09:29:05.990Z,73.8
2018-05-31T09:29:55.763Z,73.7
2018-05-31T09:30:46.092Z,73.8
2018-05-31T09:31:36.162Z,73.6
2018-05-31T09:32:25.948Z,73.4
2018-05-31T09:33:16.291Z,73.4
2018-05-31T09:34:06.372Z,73.3
2018-05-31T09:34:56.231Z,73.2
2018-05-31T09:35:46.527Z,73.1
2018-05-31T09:36:36.579Z,73
2018-05-31T09:37:26.622Z,72.8
2018-05-31T09:38:16.371Z,72.6
2018-05-31T09:39:06.741Z,72.6
2018-05-31T09:39:56.786Z,72.7
2018-05-31T09:40:46.895Z,72.6
2018-05-31T09:41:36.635Z,72.8
2018-05-31T09:42:26.984Z,73
2018-05-31T09:43:17.071Z,72.7
2018-05-31T09:44:07.130Z,72.3
2018-05-31T09:44:57.206Z,71.9
2018-05-31T09:45:47.260Z,71.8
2018-05-31T09:46:37.180Z,71.5
2018-05-31T09:47:27.409Z,71.4
2018-05-31T09:48:17.468Z,71.4
2018-05-31T09:49:06.678Z,71.4
2018-05-31T09:49:57.579Z,71.6
2018-05-31T09:50:47.659Z,71.4
2018-05-31T09:51:37.736Z,71.1
2018-05-31T09:52:27.222Z,70.9
2018-05-31T09:53:17.847Z,71.1
2018-05-31T09:54:07.624Z,71.4
2018-05-31T09:54:57.974Z,71.6
2018-05-31T09:55:48.016Z,71.9
2018-05-31T09:56:37.818Z,72.4
2018-05-31T09:57:28.176Z,72.6
2018-05-31T09:58:18.350Z,72.8
2018-05-31T09:59:08.020Z,72.9
2018-05-31T09:59:57.780Z,72.9
2018-05-31T10:00:47.838Z,72.9
2018-05-31T10:01:38.529Z,72.7
2018-05-31T10:02:28.540Z,72.6
2018-05-31T10:03:18.622Z,72.4
2018-05-31T10:04:08.111Z,72.5
2018-05-31T10:04:58.196Z,72.6
2018-05-31T10:05:48.528Z,72.8
2018-05-31T10:06:38.865Z,72.8
2018-05-31T10:07:28.646Z,72.8
2018-05-31T10:08:18.988Z,73
2018-05-31T10:09:09.089Z,73.2
2018-05-31T10:09:58.831Z,73.3
2018-05-31T10:10:49.181Z,72.9
2018-05-31T10:11:39.274Z,72.5
2018-05-31T10:12:29.327Z,72.4
2018-05-31T10:13:19.380Z,72.6
2018-05-31T10:14:09.153Z,72.6
2018-05-31T10:14:59.018Z,72.5
2018-05-31T10:15:49.310Z,72.4
2018-05-31T10:16:39.610Z,72.6
2018-05-31T10:17:29.720Z,72.8
2018-05-31T10:18:19.469Z,73.1
2018-05-31T10:19:09.541Z,73.6
2018-05-31T10:19:59.895Z,73.9
2018-05-31T10:20:49.970Z,74
2018-05-31T10:21:40.019Z,74.1
2018-05-31T10:22:30.106Z,74.3
2018-05-31T10:23:20.145Z,74.6
2018-05-31T10:24:09.935Z,74.8
2018-05-31T10:24:59.994Z,74.8
2018-05-31T10:25:50.388Z,74.6
2018-05-31T10:26:40.395Z,74.9
2018-05-31T10:27:30.482Z,75.1
2018-05-31T10:28:20.526Z,75.1
2018-05-31T10:29:10.025Z,75.3
2018-05-31T10:30:00.670Z,75.4
2018-05-31T10:30:50.729Z,75.7
2018-05-31T10:31:40.508Z,75.8
2018-05-31T10:32:30.598Z,75.9
2018-05-31T10:33:20.648Z,76.1
2018-05-31T10:34:10.704Z,76.2
2018-05-31T10:35:00.750Z,76.3
2018-05-31T10:35:50.861Z,76.3
2018-05-31T10:36:41.165Z,76.5
2018-05-31T10:37:30.967Z,76.8
2018-05-31T10:38:21.080Z,76.6
2018-05-31T10:39:11.374Z,76.1
2018-05-31T10:40:01.183Z,75.9
2018-05-31T10:40:51.487Z,76
2018-05-31T10:41:41.294Z,76.1
2018-05-31T10:42:31.376Z,76.1
2018-05-31T10:43:21.698Z,76
2018-05-31T10:44:11.776Z,75.9
2018-05-31T10:45:01.854Z,76
2018-05-31T10:45:51.596Z,76.3
2018-05-31T10:46:41.997Z,76.5
2018-05-31T10:47:32.046Z,76.4
2018-05-31T10:48:22.076Z,74.8
2018-05-31T10:49:11.559Z,71.9
2018-05-31T10:50:02.223Z,69.7
2018-05-31T10:50:52.002Z,68.6
2018-05-31T10:51:42.348Z,68.4
2018-05-31T10:52:31.840Z,68.5
2018-05-31T10:53:22.185Z,68.1
2018-05-31T10:54:12.277Z,67.7
2018-05-31T10:55:02.615Z,67.1
2018-05-31T10:55:52.664Z,66.3
2018-05-31T10:56:42.722Z,65.6
2018-05-31T10:57:32.793Z,65.1
2018-05-31T10:58:22.311Z,65.7
2018-05-31T10:59:13.107Z,67.1
2018-05-31T11:00:02.732Z,69.3
2018-05-31T11:00:52.488Z,71.5
2018-05-31T11:01:42.808Z,73.6
2018-05-31T11:02:33.158Z,75.5
2018-05-31T11:03:22.970Z,77.1
2018-05-31T11:04:13.305Z,79.6
2018-05-31T11:05:03.381Z,79
2018-05-31T11:05:53.438Z,76.6
2018-05-31T11:06:43.202Z,72.3
2018-05-31T11:07:33.258Z,68.3
2018-05-31T11:08:23.625Z,66
2018-05-31T11:09:13.401Z,64.9
2018-05-31T11:10:03.791Z,64.9
2018-05-31T11:10:53.799Z,65.8
2018-05-31T11:11:43.655Z,67.6
2018-05-31T11:12:33.917Z,69.9
2018-05-31T11:13:23.717Z,71.9
2018-05-31T11:14:14.061Z,73.9
2018-05-31T11:15:04.269Z,75.4
2018-05-31T11:15:53.906Z,76.9
2018-05-31T11:16:44.256Z,79.4
2018-05-31T11:17:34.336Z,78.8